Time;durP1;ratioP1;P1;durP2;ratioP2;P2;SDS_P1;SDS_P2;PMS_P1;PMS_P2;Temp;Humidity;BMP_temperature;BMP_pressure;BME280_temperature;BME280_humidity;BME280_pressure;Samples;Min_cycle;Max_cycle;Signal;HPM_P1;HPM_P2
2022/02/03 00:05:19;;;;;;;8.43;6.57;;;5.60;99.90;;;;;;6203903;28;20468;-80
2022/02/03 00:08:37;;;;;;;6.93;5.57;;;5.10;99.90;;;;;;6186269;28;20029;-80
2022/02/03 00:25:06;;;;;;;8.15;6.03;;;5.30;99.90;;;;;;6204664;28;20026;-80
2022/02/03 00:28:19;;;;;;;8.80;5.93;;;5.50;99.90;;;;;;6217287;28;20033;-79
2022/02/03 00:31:36;;;;;;;6.57;5.90;;;5.70;99.90;;;;;;6187927;28;20030;-80
2022/02/03 00:35:06;;;;;;;8.10;6.13;;;5.50;99.90;;;;;;6217318;28;20064;-81
2022/02/03 00:38:24;;;;;;;10.32;8.18;;;5.50;99.90;;;;;;6205355;28;20022;-78
2022/02/03 00:48:23;;;;;;;7.82;6.53;;;5.50;99.90;;;;;;6203585;28;20025;-81
2022/02/03 00:51:25;;;;;;;8.15;5.50;;;5.30;99.90;;;;;;6217476;28;20061;-79
2022/02/03 00:54:25;;;;;;;6.57;5.88;;;5.30;99.90;;;;;;6199015;28;20121;-80
2022/02/03 00:57:31;;;;;;;8.35;6.03;;;5.40;99.90;;;;;;6200505;28;20034;-81
2022/02/03 01:00:34;;;;;;;6.18;5.28;;;5.20;99.90;;;;;;6184715;28;20030;-80
2022/02/03 01:03:34;;;;;;;6.55;5.50;;;5.20;99.90;;;;;;6178377;28;20103;-80
2022/02/03 01:06:40;;;;;;;7.22;5.15;;;5.10;99.90;;;;;;6200910;28;20038;-80
2022/02/03 01:09:56;;;;;;;7.93;5.57;;;5.10;99.90;;;;;;6201300;28;20073;-79
2022/02/03 01:13:15;;;;;;;6.85;4.93;;;5.10;99.90;;;;;;6202820;28;20034;-79
2022/02/03 01:45:49;;;;;;;9.43;5.43;;;5.30;99.90;;;;;;6207262;28;20396;-78
2022/02/03 01:51:56;;;;;;;6.57;4.93;;;5.90;99.90;;;;;;6204785;28;20030;-79
2022/02/03 01:54:58;;;;;;;6.72;4.97;;;5.90;99.90;;;;;;6220445;28;20168;-80
2022/02/03 01:58:03;;;;;;;7.70;4.90;;;5.20;99.90;;;;;;6204598;28;20429;-80
2022/02/03 02:01:04;;;;;;;6.35;5.00;;;5.20;99.90;;;;;;6188160;28;20034;-81
2022/02/03 02:04:11;;;;;;;6.53;4.82;;;5.40;99.90;;;;;;6204241;28;20080;-80
2022/02/03 02:07:47;;;;;;;5.75;4.55;;;6.10;99.90;;;;;;6204495;28;20033;-80
2022/02/03 02:11:23;;;;;;;4.80;4.05;;;5.00;99.90;;;;;;6216607;28;20412;-79
2022/02/03 02:18:19;;;;;;;5.53;3.70;;;5.10;99.90;;;;;;6207006;28;20030;-80
2022/02/03 02:38:52;;;;;;;7.35;4.85;;;4.70;99.90;;;;;;6219916;28;20038;-79
2022/02/03 02:45:06;;;;;;;5.38;4.72;;;6.00;99.90;;;;;;6220796;28;20558;-80
2022/02/03 02:48:16;;;;;;;7.85;5.30;;;4.80;99.90;;;;;;6187175;28;20033;-80
2022/02/03 02:51:26;;;;;;;6.60;4.70;;;4.70;99.90;;;;;;6220325;28;20040;-80
2022/02/03 03:01:59;;;;;;;7.60;4.97;;;5.00;99.90;;;;;;6219723;28;20095;-79
2022/02/03 03:31:30;;;;;;;6.93;3.70;;;4.30;99.90;;;;;;6204968;28;20070;-79
2022/02/03 03:34:59;;;;;;;5.53;4.05;;;4.60;99.90;;;;;;6189349;28;20103;-80
2022/02/03 03:38:02;;;;;;;4.85;3.88;;;4.50;99.90;;;;;;6206745;28;20436;-79
2022/02/03 03:41:03;;;;;;;4.82;3.15;;;4.20;99.90;;;;;;6186062;28;20165;-79
2022/02/03 03:44:07;;;;;;;28.65;14.57;;;4.10;99.90;;;;;;6201416;28;20507;-80
2022/02/03 03:47:08;;;;;;;7.50;4.22;;;4.20;99.90;;;;;;6234639;28;20598;-80
2022/02/03 03:50:12;;;;;;;11.65;4.07;;;4.20;99.90;;;;;;6185430;28;20053;-80
2022/02/03 03:53:20;;;;;;;17.23;4.95;;;4.20;99.90;;;;;;6202266;28;20034;-80
2022/02/03 03:56:31;;;;;;;66.70;6.10;;;4.10;99.90;;;;;;6202736;28;20041;-80
2022/02/03 04:37:29;;;;;;;8.90;5.57;;;3.90;99.90;;;;;;6201346;28;20439;-80
2022/02/03 04:55:22;;;;;;;5.35;4.50;;;3.90;99.90;;;;;;6245375;28;20008;-81
2022/02/03 05:06:15;;;;;;;7.25;4.35;;;3.70;99.90;;;;;;6200283;28;20048;-80
2022/02/03 05:48:00;;;;;;;7.15;5.28;;;3.70;99.90;;;;;;6203440;28;20085;-79
2022/02/03 06:04:15;;;;;;;79.03;28.77;;;3.70;99.90;;;;;;6220666;28;20056;-79
2022/02/03 06:07:38;;;;;;;8.85;5.63;;;3.70;99.90;;;;;;6233686;28;20022;-79
2022/02/03 06:14:11;;;;;;;12.55;6.68;;;3.10;99.90;;;;;;6219941;28;20042;-81
2022/02/03 06:17:31;;;;;;;38.63;15.07;;;3.60;99.90;;;;;;6205760;28;20036;-80
2022/02/03 06:20:55;;;;;;;50.05;19.30;;;3.40;99.90;;;;;;6234176;28;20029;-81
2022/02/03 06:24:02;;;;;;;10.88;5.13;;;3.80;99.90;;;;;;6233183;28;20387;-81
2022/02/03 06:30:21;;;;;;;13.93;6.40;;;3.60;99.90;;;;;;6220276;28;20030;-81
2022/02/03 06:33:23;;;;;;;25.85;11.15;;;3.60;99.90;;;;;;6187140;28;20060;-82
2022/02/03 06:36:24;;;;;;;47.50;19.13;;;3.60;99.90;;;;;;6219524;28;20033;-79
2022/02/03 06:39:27;;;;;;;15.80;7.90;;;4.50;99.90;;;;;;6219817;28;20388;-79
2022/02/03 06:42:27;;;;;;;18.15;8.52;;;3.50;99.90;;;;;;6203256;28;20022;-80
2022/02/03 06:45:36;;;;;;;8.50;5.43;;;3.50;99.90;;;;;;6203021;28;20412;-78
2022/02/03 06:48:38;;;;;;;25.30;10.82;;;3.40;99.90;;;;;;6219786;28;20037;-79
2022/02/03 06:51:47;;;;;;;13.60;6.95;;;3.40;99.90;;;;;;6233749;28;20096;-79
2022/02/03 06:58:02;;;;;;;8.70;5.32;;;3.30;99.90;;;;;;6200571;28;20041;-78
2022/02/03 07:01:10;;;;;;;6.65;5.00;;;3.60;99.90;;;;;;6213879;28;20061;-79
2022/02/03 07:04:18;;;;;;;5.88;4.68;;;3.30;99.90;;;;;;6188219;28;20022;-79
2022/02/03 07:07:19;;;;;;;4.43;3.70;;;3.40;99.90;;;;;;6185440;28;20040;-79
2022/02/03 07:10:20;;;;;;;6.38;4.53;;;4.10;99.90;;;;;;6218523;28;20058;-79
2022/02/03 07:13:21;;;;;;;6.18;4.95;;;3.40;99.90;;;;;;6218626;28;20036;-79
2022/02/03 07:16:21;;;;;;;5.15;4.65;;;3.60;99.90;;;;;;6201853;28;20112;-79
2022/02/03 07:19:23;;;;;;;5.00;4.28;;;3.50;99.90;;;;;;6185026;28;20034;-79
2022/02/03 07:22:24;;;;;;;6.30;3.80;;;5.00;99.90;;;;;;6201669;28;20362;-79
2022/02/03 07:25:24;;;;;;;8.30;3.67;;;3.60;99.90;;;;;;6218616;28;20028;-80
2022/02/03 07:28:25;;;;;;;4.10;3.35;;;3.60;99.90;;;;;;6219090;28;20042;-79
2022/02/03 07:31:27;;;;;;;10.38;8.93;;;3.50;99.90;;;;;;6201450;28;20036;-77
2022/02/03 07:34:27;;;;;;;6.65;4.18;;;3.70;99.90;;;;;;6200070;28;20200;-79
2022/02/03 07:37:29;;;;;;;3.92;3.45;;;4.00;99.90;;;;;;6217983;28;20042;-79
2022/02/03 07:40:30;;;;;;;4.93;3.58;;;4.70;99.90;;;;;;6200862;28;20036;-78
2022/02/03 07:43:30;;;;;;;4.25;3.70;;;4.90;99.90;;;;;;6184448;28;20487;-80
2022/02/03 07:46:31;;;;;;;3.33;3.03;;;5.20;99.90;;;;;;6217660;28;20061;-79
2022/02/03 07:49:34;;;;;;;3.70;3.25;;;5.30;99.90;;;;;;6185358;28;20026;-79
2022/02/03 07:52:35;;;;;;;3.60;3.28;;;5.50;99.90;;;;;;6201768;28;20022;-79
2022/02/03 07:55:35;;;;;;;4.28;3.88;;;5.30;99.90;;;;;;6201384;28;20124;-77
2022/02/03 07:58:36;;;;;;;3.47;3.03;;;5.30;99.90;;;;;;6201896;28;20041;-78
2022/02/03 08:01:36;;;;;;;4.35;3.13;;;5.20;99.90;;;;;;6217791;28;20036;-79
2022/02/03 08:04:43;;;;;;;7.22;4.13;;;5.00;99.90;;;;;;6201476;28;20120;-79
2022/02/03 08:07:52;;;;;;;4.22;3.70;;;6.50;99.90;;;;;;6202223;28;20388;-79
2022/02/03 08:10:58;;;;;;;10.82;6.05;;;4.70;99.90;;;;;;6217977;28;20101;-78
2022/02/03 08:14:08;;;;;;;8.35;4.72;;;5.00;99.90;;;;;;6184846;28;20499;-79
2022/02/03 08:17:14;;;;;;;4.35;3.47;;;5.00;99.90;;;;;;6216464;28;20041;-77
2022/02/03 08:20:18;;;;;;;4.35;3.13;;;5.90;99.90;;;;;;6216935;28;20026;-77
2022/02/03 08:32:28;;;;;;;4.57;3.75;;;5.50;99.90;;;;;;6197600;28;20115;-79
2022/02/03 08:35:43;;;;;;;4.40;3.35;;;5.10;99.90;;;;;;6183983;28;20556;-79
2022/02/03 08:38:47;;;;;;;5.43;3.42;;;5.90;99.90;;;;;;6202700;28;20404;-80
2022/02/03 08:41:48;;;;;;;5.90;3.95;;;5.80;99.90;;;;;;6200926;28;20033;-78
2022/02/03 08:44:49;;;;;;;4.68;3.72;;;5.90;99.90;;;;;;6200302;28;20030;-78
2022/02/03 08:47:50;;;;;;;4.95;3.63;;;6.20;99.90;;;;;;6216279;28;20022;-79
2022/02/03 08:50:50;;;;;;;3.40;3.10;;;6.40;99.90;;;;;;6184242;28;20041;-79
2022/02/03 08:53:55;;;;;;;7.47;5.82;;;7.00;99.90;;;;;;6199218;28;20061;-79
2022/02/03 08:57:06;;;;;;;6.20;3.35;;;7.50;99.90;;;;;;6217349;28;20050;-79
2022/02/03 09:00:29;;;;;;;3.00;2.70;;;7.60;99.90;;;;;;6187405;28;20065;-79
2022/02/03 09:53:17;;;;;;;3.00;2.70;;;8.70;99.90;;;;;;6204415;28;20034;-78
2022/02/03 09:59:49;;;;;;;3.88;3.38;;;9.20;99.90;;;;;;6206921;28;20018;-79
2022/02/03 10:03:02;;;;;;;2.97;2.58;;;9.50;99.90;;;;;;6192877;28;20105;-82
2022/02/03 10:06:11;;;;;;;4.57;3.15;;;9.60;99.90;;;;;;6204903;28;20026;-82
2022/02/03 10:09:11;;;;;;;3.35;2.83;;;9.70;99.90;;;;;;6190035;28;20117;-82
2022/02/03 10:12:13;;;;;;;6.60;5.82;;;9.70;99.90;;;;;;6187920;28;20022;-80
2022/02/03 10:15:13;;;;;;;5.20;4.25;;;9.60;99.90;;;;;;6203742;28;20042;-80
2022/02/03 10:18:27;;;;;;;8.88;7.88;;;9.60;99.90;;;;;;6220425;28;20037;-81
2022/02/03 10:21:28;;;;;;;4.85;3.25;;;9.70;99.90;;;;;;6203759;28;20036;-81
2022/02/03 10:24:33;;;;;;;4.90;3.42;;;9.90;99.90;;;;;;6220267;28;20417;-80
2022/02/03 10:27:39;;;;;;;3.00;2.60;;;9.80;99.90;;;;;;6219869;28;20032;-80
2022/02/03 10:30:47;;;;;;;3.33;2.95;;;9.90;99.90;;;;;;6204639;28;20037;-81
2022/02/03 10:33:48;;;;;;;3.67;3.13;;;9.80;99.90;;;;;;6204180;28;20054;-80
2022/02/03 10:36:57;;;;;;;4.63;3.53;;;9.70;99.90;;;;;;6204041;28;20064;-81
2022/02/03 10:58:53;;;;;;;2.80;2.60;;;9.60;99.90;;;;;;6202869;28;20060;-81
2022/02/03 11:08:20;;;;;;;8.15;5.50;;;9.90;99.90;;;;;;6203364;28;20041;-81
2022/02/03 11:11:33;;;;;;;2.95;2.30;;;10.00;99.90;;;;;;6190360;28;20030;-81
2022/02/03 11:14:34;;;;;;;3.55;2.90;;;10.30;99.90;;;;;;6204552;28;20052;-81
2022/02/03 11:17:34;;;;;;;3.35;2.95;;;10.30;99.90;;;;;;6186176;28;20030;-80
2022/02/03 11:20:40;;;;;;;3.67;3.05;;;10.40;99.90;;;;;;6186241;28;20044;-81
2022/02/03 11:23:48;;;;;;;3.30;3.00;;;10.50;99.90;;;;;;6218907;28;20084;-81
2022/02/03 11:27:22;;;;;;;3.47;2.78;;;10.80;99.90;;;;;;6188000;28;20084;-81
2022/02/03 11:41:32;;;;;;;4.72;3.45;;;10.50;99.90;;;;;;6202507;28;20530;-81
2022/02/03 11:53:27;;;;;;;4.63;3.13;;;10.90;99.90;;;;;;6202720;28;20388;-80
2022/02/03 12:13:18;;;;;;;4.25;3.25;;;11.20;99.90;;;;;;6219340;28;20404;-80
2022/02/03 12:26:12;;;;;;;4.88;3.40;;;11.50;99.90;;;;;;6200924;28;20112;-81
2022/02/03 12:29:13;;;;;;;5.03;3.45;;;11.50;99.90;;;;;;6216988;28;20515;-83
2022/02/03 12:38:41;;;;;;;4.80;4.18;;;12.00;99.90;;;;;;6203466;28;20037;-81
2022/02/03 12:42:03;;;;;;;5.68;4.82;;;11.90;99.90;;;;;;6202013;28;20129;-81
2022/02/03 12:45:13;;;;;;;8.30;6.18;;;11.80;99.90;;;;;;6203108;28;20040;-81
2022/02/03 12:48:21;;;;;;;4.93;4.43;;;11.70;99.90;;;;;;6202751;28;20540;-81
2022/02/03 12:51:23;;;;;;;10.63;9.13;;;11.70;99.90;;;;;;6199554;28;20091;-79
2022/02/03 12:54:23;;;;;;;9.37;8.17;;;11.60;99.90;;;;;;6199807;28;20488;-79
2022/02/03 12:57:32;;;;;;;11.93;10.70;;;11.60;99.90;;;;;;6184177;28;20040;-80
2022/02/03 13:00:43;;;;;;;6.70;6.00;;;11.60;99.90;;;;;;6233592;28;20033;-80
2022/02/03 13:03:47;;;;;;;4.97;4.47;;;11.70;99.90;;;;;;6216760;28;20060;-80
2022/02/03 13:07:02;;;;;;;5.00;4.50;;;11.60;99.90;;;;;;6169979;28;20042;-82
2022/02/03 13:10:05;;;;;;;4.68;3.90;;;11.50;99.90;;;;;;6178546;28;20535;-80
2022/02/03 13:13:38;;;;;;;5.10;4.50;;;11.50;99.90;;;;;;6231968;28;20034;-81
2022/02/03 13:16:59;;;;;;;4.30;3.87;;;11.50;99.90;;;;;;6204581;28;20048;-79
2022/02/03 13:20:21;;;;;;;6.10;4.55;;;11.70;99.90;;;;;;6207316;28;20034;-79
2022/02/03 13:23:26;;;;;;;5.22;4.72;;;11.20;99.90;;;;;;6207392;28;20785;-79
2022/02/03 13:26:32;;;;;;;5.35;4.00;;;11.30;99.90;;;;;;6221248;28;20033;-78
2022/02/03 13:29:46;;;;;;;5.32;4.47;;;11.20;99.90;;;;;;6205162;28;20018;-79
2022/02/03 13:32:51;;;;;;;5.00;4.18;;;11.20;99.90;;;;;;6206126;28;20427;-78
2022/02/03 13:36:04;;;;;;;4.70;3.90;;;11.30;99.90;;;;;;6205105;28;20399;-78
2022/02/03 13:39:14;;;;;;;6.68;4.80;;;11.40;99.90;;;;;;6221009;28;20120;-79
2022/02/03 13:42:16;;;;;;;4.07;3.60;;;11.50;99.90;;;;;;6191189;28;20025;-80
2022/02/03 13:45:19;;;;;;;4.37;3.37;;;11.50;99.90;;;;;;6220834;28;20025;-79
2022/02/03 13:48:20;;;;;;;4.35;3.42;;;11.50;99.90;;;;;;6170517;28;20040;-80
2022/02/03 13:51:30;;;;;;;4.00;3.30;;;11.50;99.90;;;;;;6235760;28;20029;-80
2022/02/03 14:15:33;;;;;;;3.88;2.42;;;11.40;99.90;;;;;;6204438;28;20077;-80
2022/02/03 14:21:21;;;;;;;2.83;2.55;;;11.30;99.90;;;;;;6202694;28;20026;-78
2022/02/03 14:27:47;;;;;;;3.25;2.80;;;11.30;99.90;;;;;;6218236;28;20434;-81
2022/02/03 14:30:53;;;;;;;4.15;3.40;;;11.20;99.90;;;;;;6219121;28;20078;-82
2022/02/03 14:34:00;;;;;;;3.90;2.88;;;11.20;99.90;;;;;;6200807;28;20049;-82
2022/02/03 14:37:11;;;;;;;4.82;3.10;;;11.20;99.90;;;;;;6185221;28;20464;-83
2022/02/03 14:40:30;;;;;;;5.10;3.58;;;11.10;99.90;;;;;;6203257;28;20037;-84
2022/02/03 14:43:31;;;;;;;6.35;3.25;;;11.00;99.90;;;;;;6218695;28;20083;-82
2022/02/03 14:46:32;;;;;;;4.82;3.70;;;10.90;99.90;;;;;;6202519;28;20033;-81
2022/02/03 14:49:33;;;;;;;5.43;4.10;;;10.90;99.90;;;;;;6201750;28;20060;-81
2022/02/03 14:52:46;;;;;;;6.18;4.20;;;10.80;99.90;;;;;;6202232;28;20026;-81
2022/02/03 14:59:06;;;;;;;5.30;4.07;;;10.70;99.90;;;;;;6202600;28;20476;-81
2022/02/03 15:02:08;;;;;;;4.82;4.30;;;10.60;99.90;;;;;;6201481;28;20458;-81
2022/02/03 15:05:12;;;;;;;6.03;4.60;;;10.60;99.90;;;;;;6184917;28;20091;-80
2022/02/03 15:08:22;;;;;;;5.00;4.50;;;10.40;99.90;;;;;;6216586;28;20053;-79
2022/02/03 15:11:40;;;;;;;6.43;4.40;;;10.40;99.90;;;;;;6202399;28;20036;-79
2022/02/03 15:14:42;;;;;;;5.32;4.80;;;10.30;99.90;;;;;;6218828;28;20121;-79
2022/02/03 15:17:42;;;;;;;6.43;5.57;;;10.20;99.90;;;;;;6201346;28;20464;-79
2022/02/03 15:20:43;;;;;;;6.40;4.82;;;10.10;99.90;;;;;;6170387;28;20038;-79
2022/02/03 15:23:44;;;;;;;13.57;10.63;;;10.00;99.90;;;;;;6201926;28;20109;-80
2022/02/03 15:26:44;;;;;;;5.53;4.85;;;9.90;99.90;;;;;;6235120;28;20404;-81
2022/02/03 15:29:47;;;;;;;6.25;4.32;;;9.80;99.90;;;;;;6218053;28;20042;-80
2022/02/03 15:32:49;;;;;;;6.45;4.38;;;9.70;99.90;;;;;;6185452;28;20026;-80
2022/02/03 15:35:52;;;;;;;5.77;4.07;;;9.60;99.90;;;;;;6201358;28;20049;-80
2022/02/03 15:38:55;;;;;;;17.13;11.45;;;9.60;99.90;;;;;;6201747;28;20022;-79
2022/02/03 15:41:55;;;;;;;12.73;8.52;;;9.50;99.90;;;;;;6202311;28;20022;-80
2022/02/03 15:44:58;;;;;;;13.88;8.35;;;9.50;99.90;;;;;;6218132;28;20088;-79
2022/02/03 15:48:03;;;;;;;6.00;5.40;;;9.50;99.90;;;;;;6201948;28;20060;-80
2022/02/03 16:01:18;;;;;;;6.07;5.43;;;9.00;99.90;;;;;;6193324;28;20041;-81
2022/02/03 16:17:26;;;;;;;5.82;4.75;;;8.60;99.90;;;;;;6201871;28;20033;-81
2022/02/03 16:20:39;;;;;;;11.75;4.55;;;8.50;99.90;;;;;;6183812;28;20034;-81
2022/02/03 16:53:13;;;;;;;6.10;4.75;;;7.30;99.90;;;;;;6208260;28;20022;-82
2022/02/03 17:00:15;;;;;;;26.65;24.15;;;7.50;99.90;;;;;;6228940;28;20132;-82
2022/02/03 17:03:34;;;;;;;12.90;9.35;;;7.30;99.90;;;;;;6242989;28;20060;-82
2022/02/03 17:06:41;;;;;;;9.85;6.28;;;7.40;99.90;;;;;;6211892;28;20041;-82
2022/02/03 17:09:42;;;;;;;10.32;5.90;;;7.20;99.90;;;;;;6210941;28;20072;-82
2022/02/03 17:12:42;;;;;;;8.70;5.80;;;7.20;99.90;;;;;;6210192;28;20033;-83
2022/02/03 17:15:45;;;;;;;7.10;5.18;;;7.10;99.90;;;;;;6206662;28;20038;-83
2022/02/03 17:18:47;;;;;;;6.18;4.63;;;7.10;99.90;;;;;;6210325;28;20046;-83
2022/02/03 17:22:03;;;;;;;6.57;3.95;;;7.10;99.90;;;;;;6206895;28;20033;-83
2022/02/03 17:28:13;;;;;;;8.02;5.38;;;6.90;99.90;;;;;;6227367;28;20109;-84
2022/02/03 17:31:44;;;;;;;7.47;6.10;;;6.90;99.90;;;;;;6234181;28;20387;-82
2022/02/03 18:08:23;;;;;;;11.95;8.82;;;6.40;99.90;;;;;;6204363;28;20030;-78
2022/02/03 18:30:45;;;;;;;6.18;4.05;;;6.30;99.90;;;;;;6204729;28;20026;-79
2022/02/03 18:52:59;;;;;;;9.40;6.95;;;6.40;99.90;;;;;;6202750;28;20030;-80
2022/02/03 18:56:09;;;;;;;11.55;7.10;;;6.30;99.90;;;;;;6217441;28;20552;-78
2022/02/03 19:02:57;;;;;;;8.60;5.65;;;6.30;99.90;;;;;;6232809;28;20477;-78
2022/02/03 19:16:22;;;;;;;5.20;4.20;;;6.20;99.90;;;;;;6216977;28;20049;-78
2022/02/03 19:26:17;;;;;;;9.93;6.90;;;6.10;99.90;;;;;;6219048;28;20038;-77
2022/02/03 20:09:37;;;;;;;7.88;6.38;;;4.60;99.90;;;;;;6205167;28;20465;-80
2022/02/03 20:12:38;;;;;;;8.15;6.38;;;4.30;99.90;;;;;;6204770;28;20030;-80
2022/02/03 20:15:46;;;;;;;9.52;6.22;;;5.00;99.90;;;;;;6216921;28;20127;-79
2022/02/03 20:18:47;;;;;;;9.45;6.28;;;5.00;99.90;;;;;;6185147;28;20044;-79
2022/02/03 20:21:48;;;;;;;8.05;5.45;;;5.30;99.90;;;;;;6199310;28;20034;-79
2022/02/03 20:24:49;;;;;;;11.73;7.13;;;4.90;99.90;;;;;;6197328;28;20037;-79
2022/02/03 20:27:49;;;;;;;10.80;7.18;;;4.70;99.90;;;;;;6213793;28;20026;-79
2022/02/03 20:30:50;;;;;;;7.60;6.40;;;4.50;99.90;;;;;;6216902;28;20025;-80
2022/02/03 20:33:50;;;;;;;8.77;4.97;;;4.60;99.90;;;;;;6213466;28;20095;-78
2022/02/03 20:36:52;;;;;;;5.10;3.80;;;4.50;99.90;;;;;;6214989;28;20053;-79
2022/02/03 20:39:53;;;;;;;12.88;8.63;;;4.50;99.90;;;;;;6216250;28;20285;-78
2022/02/03 20:42:53;;;;;;;9.68;7.05;;;4.50;99.90;;;;;;6200402;28;20126;-79
2022/02/03 20:45:54;;;;;;;9.75;6.03;;;4.70;99.90;;;;;;6195785;28;20119;-80
2022/02/03 20:48:55;;;;;;;8.75;5.70;;;4.40;99.90;;;;;;6198280;28;20085;-81
2022/02/03 20:51:57;;;;;;;9.98;6.32;;;4.30;99.90;;;;;;6198787;28;20034;-79
2022/02/03 20:54:57;;;;;;;7.10;5.40;;;5.50;99.90;;;;;;6198926;28;20038;-81
2022/02/03 20:57:58;;;;;;;5.18;3.47;;;4.50;99.90;;;;;;6199000;28;20210;-80
2022/02/03 21:01:07;;;;;;;11.88;8.32;;;4.30;99.90;;;;;;6214651;28;20040;-81
2022/02/03 21:04:13;;;;;;;6.95;4.22;;;5.70;99.90;;;;;;6200035;28;20451;-84
2022/02/03 21:07:14;;;;;;;10.25;5.97;;;4.10;99.90;;;;;;6182973;28;20030;-81
2022/02/03 21:10:18;;;;;;;6.85;5.55;;;4.10;99.90;;;;;;6198725;28;20388;-80
2022/02/03 21:13:19;;;;;;;8.05;4.80;;;4.20;99.90;;;;;;6181643;28;20049;-81
2022/02/03 21:16:20;;;;;;;7.22;5.35;;;3.70;99.90;;;;;;6199544;28;20045;-80
2022/02/03 21:19:22;;;;;;;5.28;4.25;;;4.50;99.90;;;;;;6214989;28;20477;-80
2022/02/03 21:22:22;;;;;;;5.53;3.80;;;3.90;99.90;;;;;;6198336;28;20026;-79
2022/02/03 21:25:30;;;;;;;6.85;3.92;;;4.40;99.90;;;;;;6198662;28;20412;-80
2022/02/03 21:28:34;;;;;;;5.90;4.43;;;4.10;99.90;;;;;;6199407;28;20034;-81
2022/02/03 21:31:34;;;;;;;5.68;3.92;;;4.20;99.90;;;;;;6196974;28;20440;-79
2022/02/03 21:34:35;;;;;;;4.45;3.60;;;4.10;99.90;;;;;;6212660;28;20061;-79
2022/02/03 21:37:37;;;;;;;5.45;3.45;;;4.30;99.90;;;;;;6198363;28;20468;-79
2022/02/03 21:40:38;;;;;;;5.25;3.20;;;3.90;99.90;;;;;;6216937;28;20022;-78
2022/02/03 21:43:39;;;;;;;5.13;3.30;;;5.60;99.90;;;;;;6233760;28;20385;-78
2022/02/03 21:46:39;;;;;;;4.57;3.30;;;4.20;99.90;;;;;;6202782;28;20108;-78
2022/02/03 21:49:40;;;;;;;5.40;3.67;;;4.00;99.90;;;;;;6203629;28;20034;-79
2022/02/03 21:52:47;;;;;;;5.38;3.72;;;4.00;99.90;;;;;;6181754;28;20379;-79
2022/02/03 21:55:48;;;;;;;14.50;7.65;;;3.90;99.90;;;;;;6218156;28;20400;-78
2022/02/03 21:58:49;;;;;;;9.20;5.40;;;3.80;99.90;;;;;;6204108;28;20121;-77
2022/02/03 22:01:49;;;;;;;7.07;4.38;;;3.40;99.90;;;;;;6173233;28;20036;-78
2022/02/03 22:04:50;;;;;;;6.00;4.00;;;3.70;99.90;;;;;;6203983;28;20536;-78
2022/02/03 22:07:51;;;;;;;7.03;3.97;;;4.20;99.90;;;;;;6204179;28;20030;-78
2022/02/03 22:10:51;;;;;;;12.63;7.00;;;3.90;99.90;;;;;;6220781;28;20156;-77
2022/02/03 22:13:52;;;;;;;10.90;6.72;;;3.60;99.90;;;;;;6203654;28;20080;-79
2022/02/03 22:16:54;;;;;;;10.00;7.10;;;3.60;99.90;;;;;;6218352;28;20025;-78
2022/02/03 22:19:55;;;;;;;6.03;3.33;;;3.70;99.90;;;;;;6219322;28;20034;-78
2022/02/03 22:48:53;;;;;;;3.63;2.70;;;3.70;99.90;;;;;;6220789;28;20095;-78
2022/02/03 22:51:54;;;;;;;3.53;2.65;;;4.30;99.90;;;;;;6220616;28;20038;-78
2022/02/03 22:54:54;;;;;;;2.85;2.50;;;3.00;99.90;;;;;;6218306;28;20049;-77
2022/02/03 22:58:17;;;;;;;5.80;2.70;;;3.10;99.90;;;;;;6218625;28;20052;-78
2022/02/03 23:01:15;;;;;;;3.47;2.60;;;3.70;99.90;;;;;;6218044;28;20026;-77
2022/02/03 23:04:17;;;;;;;3.45;2.70;;;3.10;99.90;;;;;;6219443;28;20450;-78
2022/02/03 23:07:22;;;;;;;3.10;2.63;;;4.10;99.90;;;;;;6203058;28;20026;-78
2022/02/03 23:10:47;;;;;;;3.50;2.50;;;3.00;99.90;;;;;;6217893;28;20026;-77
2022/02/03 23:14:01;;;;;;;3.75;2.70;;;3.00;99.90;;;;;;6231293;28;20068;-77
2022/02/03 23:20:20;;;;;;;5.18;3.40;;;3.00;99.90;;;;;;6219354;28;20029;-79
2022/02/03 23:23:21;;;;;;;3.63;2.97;;;3.00;99.90;;;;;;6203938;28;20115;-78
2022/02/03 23:26:24;;;;;;;3.40;2.10;;;4.00;99.90;;;;;;6202299;28;20030;-76
2022/02/03 23:29:25;;;;;;;3.22;2.67;;;3.30;99.90;;;;;;6217989;28;20546;-78
2022/02/03 23:32:27;;;;;;;3.17;2.53;;;3.90;99.90;;;;;;6218140;28;20034;-78
2022/02/03 23:35:30;;;;;;;3.78;3.03;;;3.10;99.90;;;;;;6217781;28;20049;-76
2022/02/03 23:38:46;;;;;;;3.13;2.42;;;3.10;99.90;;;;;;6201082;28;20171;-77
